createdAt,value
2022-12-04T00:00:27.370Z,68.88
2022-12-04T00:02:54.035Z,69.12
2022-12-04T00:05:20.924Z,69.35
2022-12-04T00:07:48.674Z,69.47
2022-12-04T00:10:15.584Z,69.73
2022-12-04T00:12:42.185Z,69.32
2022-12-04T00:15:25.134Z,69.51
2022-12-04T00:17:52.162Z,69.29
2022-12-04T00:20:18.742Z,69.70
2022-12-04T00:22:45.327Z,68.74
2022-12-04T00:25:11.934Z,68.93
2022-12-04T00:27:38.608Z,68.75
2022-12-04T00:30:06.031Z,68.67
2022-12-04T00:32:32.625Z,68.79
2022-12-04T00:34:59.209Z,69.01
2022-12-04T00:37:25.800Z,68.50
2022-12-04T00:39:52.644Z,68.95
2022-12-04T00:42:19.634Z,68.86
2022-12-04T00:44:46.205Z,69.17
2022-12-04T00:47:12.913Z,69.04
2022-12-04T00:49:39.620Z,68.91
2022-12-04T00:52:06.221Z,69.15
2022-12-04T00:54:32.831Z,69.04
2022-12-04T00:56:59.422Z,69.55
2022-12-04T00:59:26.040Z,69.60
2022-12-04T01:01:52.635Z,69.40
2022-12-04T01:04:19.379Z,69.65
2022-12-04T01:06:47.243Z,69.36
2022-12-04T01:09:13.867Z,69.24
2022-12-04T01:11:40.569Z,69.51
2022-12-04T01:14:07.387Z,69.58
2022-12-04T01:16:37.107Z,69.54
2022-12-04T01:19:05.516Z,69.57
2022-12-04T01:21:32.448Z,69.42
2022-12-04T01:23:59.840Z,69.08
2022-12-04T01:26:27.307Z,69.18
2022-12-04T01:28:54.367Z,69.73
2022-12-04T01:31:22.637Z,69.25
2022-12-04T01:33:50.741Z,69.09
2022-12-04T01:36:20.566Z,69.48
2022-12-04T01:38:47.249Z,69.25
2022-12-04T01:41:15.607Z,69.27
2022-12-04T01:43:42.857Z,69.34
2022-12-04T01:46:10.720Z,68.90
2022-12-04T01:48:44.169Z,69.00
2022-12-04T01:51:21.103Z,69.75
2022-12-04T01:53:54.734Z,68.95
2022-12-04T01:56:26.959Z,69.68
2022-12-04T01:58:59.065Z,69.25
2022-12-04T02:01:29.634Z,69.60
2022-12-04T02:03:57.124Z,68.99
2022-12-04T02:06:23.750Z,69.41
2022-12-04T02:08:50.597Z,68.71
2022-12-04T02:11:29.387Z,69.09
2022-12-04T02:13:55.991Z,68.84
2022-12-04T02:16:35.231Z,68.87
2022-12-04T02:19:10.053Z,68.88
2022-12-04T02:21:40.353Z,68.83
2022-12-04T02:24:13.055Z,68.03
2022-12-04T02:26:54.774Z,67.78
2022-12-04T02:29:24.232Z,67.88
2022-12-04T02:32:00.907Z,67.98
2022-12-04T02:34:36.080Z,68.33
2022-12-04T02:37:12.905Z,67.88
2022-12-04T02:39:44.656Z,68.06
2022-12-04T02:42:19.112Z,67.57
2022-12-04T02:44:53.115Z,67.82
2022-12-04T02:47:24.175Z,67.84
2022-12-04T02:49:58.105Z,67.36
2022-12-04T02:52:33.507Z,67.32
2022-12-04T02:55:08.817Z,67.73
2022-12-04T02:57:45.529Z,67.55
2022-12-04T03:00:13.008Z,67.83
2022-12-04T03:02:47.502Z,67.91
2022-12-04T03:05:19.892Z,67.65
2022-12-04T03:07:56.558Z,67.82
2022-12-04T03:10:30.198Z,68.18
2022-12-04T03:13:05.905Z,67.96
2022-12-04T03:15:43.735Z,67.82
2022-12-04T03:18:28.400Z,68.28
2022-12-04T03:21:18.474Z,68.38
2022-12-04T03:23:50.807Z,68.10
2022-12-04T03:26:37.374Z,68.38
2022-12-04T03:29:19.696Z,68.43
2022-12-04T03:31:56.746Z,68.53
2022-12-04T03:34:46.401Z,68.53
2022-12-04T03:37:20.413Z,68.21
2022-12-04T03:39:56.623Z,68.29
2022-12-04T03:42:40.240Z,68.18
2022-12-04T03:45:15.317Z,68.25
2022-12-04T03:48:06.467Z,68.60
2022-12-04T03:50:40.204Z,69.07
2022-12-04T03:53:21.392Z,68.78
2022-12-04T03:56:12.269Z,68.66
2022-12-04T03:58:45.973Z,68.93
2022-12-04T04:01:17.081Z,69.39
2022-12-04T04:03:49.736Z,68.86
2022-12-04T04:06:22.141Z,68.86
2022-12-04T04:08:52.386Z,68.85
2022-12-04T04:11:58.555Z,68.65
2022-12-04T04:14:51.615Z,68.83
2022-12-04T04:17:42.716Z,68.93
2022-12-04T04:20:33.518Z,68.73
2022-12-04T04:23:22.079Z,69.15
2022-12-04T04:25:51.181Z,68.79
2022-12-04T04:28:37.232Z,68.86
2022-12-04T04:31:21.987Z,69.33
2022-12-04T04:34:11.819Z,69.40
2022-12-04T04:37:11.438Z,69.05
2022-12-04T04:40:05.802Z,69.58
2022-12-04T04:42:35.189Z,69.18
2022-12-04T04:45:19.588Z,68.93
2022-12-04T04:47:48.902Z,69.27
2022-12-04T04:50:17.829Z,69.72
2022-12-04T04:52:49.089Z,69.52
2022-12-04T04:55:18.027Z,69.61
2022-12-04T04:57:44.752Z,69.98
2022-12-04T05:00:15.278Z,69.87
2022-12-04T05:02:42.230Z,69.92
2022-12-04T05:05:09.885Z,69.74
2022-12-04T05:07:36.530Z,70.05
2022-12-04T05:10:04.191Z,69.93
2022-12-04T05:12:30.937Z,69.98
2022-12-04T05:14:57.591Z,70.25
2022-12-04T05:17:24.259Z,69.60
2022-12-04T05:19:54.348Z,69.66
2022-12-04T05:22:22.401Z,69.91
2022-12-04T05:24:51.282Z,69.48
2022-12-04T05:27:17.833Z,69.95
2022-12-04T05:29:44.389Z,70.16
2022-12-04T05:32:11.077Z,69.40
2022-12-04T05:34:37.801Z,69.83
2022-12-04T05:37:04.375Z,70.23
2022-12-04T05:39:31.148Z,69.94
2022-12-04T05:41:57.687Z,69.83
2022-12-04T05:44:24.301Z,70.13
2022-12-04T05:46:51.033Z,69.81
2022-12-04T05:49:17.726Z,70.13
2022-12-04T05:51:44.359Z,69.89
2022-12-04T05:54:10.968Z,70.44
2022-12-04T05:56:37.597Z,70.22
2022-12-04T05:59:04.132Z,70.54
2022-12-04T06:01:30.789Z,70.63
2022-12-04T06:03:57.431Z,70.17
2022-12-04T06:06:25.837Z,69.90
2022-12-04T06:08:55.412Z,69.80
2022-12-04T06:11:27.595Z,70.15
2022-12-04T06:13:54.705Z,69.96
2022-12-04T06:16:27.225Z,69.74
2022-12-04T06:18:57.304Z,69.77
2022-12-04T06:21:26.586Z,70.20
2022-12-04T06:23:54.128Z,70.33
2022-12-04T06:26:21.669Z,70.53
2022-12-04T06:28:48.655Z,70.75
2022-12-04T06:31:16.922Z,70.75
2022-12-04T06:33:43.487Z,70.65
2022-12-04T06:36:18.393Z,70.33
2022-12-04T06:38:45.676Z,70.09
2022-12-04T06:41:14.266Z,69.74
2022-12-04T06:43:41.719Z,70.79
2022-12-04T06:46:15.388Z,70.09
2022-12-04T06:48:42.763Z,70.83
2022-12-04T06:51:12.717Z,70.42
2022-12-04T06:53:40.082Z,70.82
2022-12-04T06:56:11.508Z,70.88
2022-12-04T06:58:38.405Z,70.72
2022-12-04T07:01:10.491Z,70.42
2022-12-04T07:03:41.695Z,70.38
2022-12-04T07:06:11.328Z,70.46
2022-12-04T07:08:38.124Z,69.90
2022-12-04T07:11:04.889Z,70.36
2022-12-04T07:13:31.615Z,70.79
2022-12-04T07:16:01.473Z,70.21
2022-12-04T07:18:29.847Z,70.24
2022-12-04T07:20:56.622Z,70.22
2022-12-04T07:23:25.116Z,70.32
2022-12-04T07:25:52.582Z,70.35
2022-12-04T07:28:19.367Z,70.04
2022-12-04T07:30:46.082Z,70.40
2022-12-04T07:33:13.835Z,69.85
2022-12-04T07:35:40.528Z,70.28
2022-12-04T07:38:07.246Z,69.53
2022-12-04T07:40:33.860Z,69.47
2022-12-04T07:43:00.661Z,69.43
2022-12-04T07:45:27.600Z,69.58
2022-12-04T07:47:56.490Z,69.84
2022-12-04T07:50:23.179Z,69.17
2022-12-04T07:52:49.845Z,69.51
2022-12-04T07:55:21.577Z,69.61
2022-12-04T07:57:49.776Z,69.09
2022-12-04T08:00:17.827Z,68.76
2022-12-04T08:02:44.441Z,68.73
2022-12-04T08:05:10.989Z,68.97
2022-12-04T08:07:38.116Z,69.50
2022-12-04T08:10:05.808Z,68.73
2022-12-04T08:12:33.244Z,67.99
2022-12-04T08:15:00.030Z,68.58
2022-12-04T08:17:27.081Z,68.06
2022-12-04T08:19:54.142Z,67.23
2022-12-04T08:22:25.099Z,67.52
2022-12-04T08:24:52.226Z,67.70
2022-12-04T08:27:18.861Z,67.42
2022-12-04T08:29:45.490Z,67.16
2022-12-04T08:32:12.136Z,67.22
2022-12-04T08:34:38.786Z,66.96
2022-12-04T08:37:05.478Z,66.42
2022-12-04T08:39:33.519Z,66.61
2022-12-04T08:42:00.435Z,65.51
2022-12-04T08:44:27.340Z,65.19
2022-12-04T08:46:54.383Z,64.98
2022-12-04T08:49:21.028Z,65.24
2022-12-04T08:51:47.618Z,64.86
2022-12-04T08:54:14.445Z,64.42
2022-12-04T08:56:41.165Z,64.39
2022-12-04T08:59:07.908Z,64.03
2022-12-04T09:01:34.744Z,63.84
2022-12-04T09:04:01.538Z,64.06
2022-12-04T09:06:28.487Z,64.16
2022-12-04T09:08:56.639Z,63.78
2022-12-04T09:11:27.370Z,64.29
2022-12-04T09:13:54.633Z,63.00
2022-12-04T09:16:24.065Z,64.55
2022-12-04T09:18:55.231Z,64.22
2022-12-04T09:21:23.465Z,63.75
2022-12-04T09:23:54.496Z,63.82
2022-12-04T09:26:33.060Z,63.66
2022-12-04T09:29:02.216Z,64.10
2022-12-04T09:31:29.897Z,63.86
2022-12-04T09:33:59.820Z,63.37
2022-12-04T09:36:29.896Z,63.81
2022-12-04T09:38:58.165Z,62.54
2022-12-04T09:41:37.364Z,62.72
2022-12-04T09:44:08.224Z,63.52
2022-12-04T09:46:49.528Z,63.56
2022-12-04T09:49:26.511Z,62.73
2022-12-04T09:51:57.014Z,63.17
2022-12-04T09:54:29.955Z,62.61
2022-12-04T09:57:10.348Z,63.01
2022-12-04T09:59:41.516Z,62.87
2022-12-04T10:02:35.988Z,62.50
2022-12-04T10:05:15.163Z,62.40
2022-12-04T10:08:17.086Z,62.05
2022-12-04T10:10:54.902Z,62.09
2022-12-04T10:13:24.732Z,62.28
2022-12-04T10:16:05.363Z,61.78
2022-12-04T10:19:00.117Z,61.74
2022-12-04T10:21:45.493Z,62.04
2022-12-04T10:24:28.604Z,61.90
2022-12-04T10:27:00.251Z,61.52
2022-12-04T10:29:32.627Z,62.06
2022-12-04T10:32:19.137Z,61.74
2022-12-04T10:34:48.495Z,61.81
2022-12-04T10:37:15.373Z,61.77
2022-12-04T10:39:49.531Z,62.02
2022-12-04T10:42:28.193Z,61.80
2022-12-04T10:44:55.251Z,61.70
2022-12-04T10:47:24.344Z,61.54
2022-12-04T10:49:59.664Z,60.84
2022-12-04T10:52:26.471Z,61.57
2022-12-04T10:54:59.810Z,61.59
2022-12-04T10:57:58.865Z,61.19
2022-12-04T11:00:34.286Z,60.90
2022-12-04T11:03:04.243Z,60.83
2022-12-04T11:05:38.607Z,60.84
2022-12-04T11:08:07.765Z,60.96
2022-12-04T11:10:38.643Z,61.16
2022-12-04T11:13:10.954Z,60.93
2022-12-04T11:15:51.019Z,60.98
2022-12-04T11:18:30.389Z,60.99
2022-12-04T11:21:07.907Z,61.24
2022-12-04T11:23:46.205Z,60.18
2022-12-04T11:26:13.611Z,61.11
2022-12-04T11:28:45.147Z,60.81
2022-12-04T11:31:22.770Z,60.77
2022-12-04T11:33:58.708Z,61.10
2022-12-04T11:36:29.972Z,61.60
2022-12-04T11:39:15.623Z,61.40
2022-12-04T11:41:45.698Z,61.78
2022-12-04T11:44:27.294Z,62.09
2022-12-04T11:46:58.451Z,62.31
2022-12-04T11:49:27.084Z,62.38
2022-12-04T11:52:21.428Z,62.58
2022-12-04T11:55:02.301Z,62.66
2022-12-04T11:57:53.844Z,62.80
2022-12-04T12:00:22.806Z,61.74
2022-12-04T12:03:10.855Z,61.42
2022-12-04T12:05:59.373Z,62.45
2022-12-04T12:08:53.225Z,62.39
2022-12-04T12:11:26.054Z,62.35
2022-12-04T12:14:21.328Z,62.09
2022-12-04T12:17:33.117Z,62.02
2022-12-04T12:20:16.643Z,62.18
2022-12-04T12:22:52.360Z,61.17
2022-12-04T12:25:26.266Z,61.59
2022-12-04T12:28:16.327Z,61.73
2022-12-04T12:30:48.979Z,62.84
2022-12-04T12:33:26.414Z,62.61
2022-12-04T12:36:03.263Z,62.44
2022-12-04T12:38:39.755Z,62.23
2022-12-04T12:41:31.731Z,62.67
2022-12-04T12:44:05.858Z,62.10
2022-12-04T12:46:42.030Z,62.14
2022-12-04T12:49:20.643Z,62.50
2022-12-04T12:51:58.215Z,62.50
2022-12-04T12:54:39.697Z,62.66
2022-12-04T12:57:09.303Z,61.70
2022-12-04T12:59:42.231Z,61.30
2022-12-04T13:02:23.117Z,61.77
2022-12-04T13:04:52.914Z,61.70
2022-12-04T13:07:32.105Z,62.18
2022-12-04T13:10:18.636Z,62.13
2022-12-04T13:12:51.808Z,61.42
2022-12-04T13:15:23.451Z,62.07
2022-12-04T13:17:54.707Z,62.56
2022-12-04T13:20:28.697Z,62.74
2022-12-04T13:23:11.118Z,62.34
2022-12-04T13:25:59.334Z,62.83
2022-12-04T13:28:33.937Z,62.11
2022-12-04T13:31:26.789Z,62.53
2022-12-04T13:34:05.586Z,62.46
2022-12-04T13:37:01.382Z,62.32
2022-12-04T13:39:50.602Z,62.05
2022-12-04T13:42:26.603Z,62.32
2022-12-04T13:45:00.085Z,62.45
2022-12-04T13:47:33.160Z,62.45
2022-12-04T13:50:19.911Z,62.32
2022-12-04T13:52:49.255Z,62.10
2022-12-04T13:55:24.059Z,62.44
2022-12-04T13:58:15.210Z,62.49
2022-12-04T14:00:43.581Z,62.63
2022-12-04T14:03:33.016Z,62.60
2022-12-04T14:06:05.532Z,62.75
2022-12-04T14:08:39.553Z,62.61
2022-12-04T14:11:15.474Z,62.56
2022-12-04T14:13:42.061Z,62.69
2022-12-04T14:16:38.999Z,62.81
2022-12-04T14:19:07.533Z,62.61
2022-12-04T14:21:42.114Z,62.60
2022-12-04T14:24:38.847Z,62.58
2022-12-04T14:27:44.290Z,62.47
2022-12-04T14:30:19.789Z,61.98
2022-12-04T14:32:49.904Z,62.57
2022-12-04T14:35:20.647Z,62.44
2022-12-04T14:37:56.137Z,61.85
2022-12-04T14:40:27.040Z,62.37
2022-12-04T14:42:54.799Z,62.21
2022-12-04T14:45:27.381Z,62.33
2022-12-04T14:48:07.055Z,62.27
2022-12-04T14:50:47.364Z,62.46
2022-12-04T14:53:25.803Z,61.88
2022-12-04T14:56:11.092Z,62.41
2022-12-04T14:58:41.077Z,62.02
2022-12-04T15:01:22.753Z,62.30
2022-12-04T15:03:56.218Z,62.34
2022-12-04T15:06:29.607Z,62.45
2022-12-04T15:09:19.570Z,62.27
2022-12-04T15:12:10.214Z,62.67
2022-12-04T15:14:40.846Z,62.62
2022-12-04T15:17:10.312Z,62.42
2022-12-04T15:19:37.056Z,62.10
2022-12-04T15:22:26.202Z,62.52
2022-12-04T15:24:53.692Z,62.19
2022-12-04T15:27:28.817Z,62.13
2022-12-04T15:30:00.390Z,61.77
2022-12-04T15:32:28.793Z,62.31
2022-12-04T15:35:05.605Z,61.64
2022-12-04T15:37:33.720Z,61.67
2022-12-04T15:40:05.166Z,62.22
2022-12-04T15:42:33.037Z,61.52
2022-12-04T15:45:25.934Z,62.04
2022-12-04T15:47:53.945Z,61.94
2022-12-04T15:50:27.324Z,61.50
2022-12-04T15:52:56.979Z,61.33
2022-12-04T15:55:25.171Z,61.83
2022-12-04T15:57:57.400Z,61.17
2022-12-04T16:00:24.066Z,61.24
2022-12-04T16:02:51.522Z,61.44
2022-12-04T16:05:21.278Z,61.38
2022-12-04T16:07:53.554Z,61.55
2022-12-04T16:10:30.669Z,60.94
2022-12-04T16:13:00.776Z,61.12
2022-12-04T16:15:44.042Z,61.39
2022-12-04T16:18:13.735Z,61.03
2022-12-04T16:20:41.575Z,60.99
2022-12-04T16:23:09.740Z,61.21
2022-12-04T16:25:36.394Z,61.43
2022-12-04T16:28:03.121Z,61.15
2022-12-04T16:30:33.347Z,61.30
2022-12-04T16:32:59.997Z,61.24
2022-12-04T16:35:26.748Z,61.07
2022-12-04T16:37:56.768Z,61.24
2022-12-04T16:40:23.404Z,61.50
2022-12-04T16:42:50.023Z,61.37
2022-12-04T16:45:34.724Z,61.56
2022-12-04T16:48:01.387Z,61.25
2022-12-04T16:50:28.465Z,61.52
2022-12-04T16:52:55.153Z,60.99
2022-12-04T16:55:29.382Z,61.56
2022-12-04T16:57:57.191Z,61.52
2022-12-04T17:00:24.084Z,61.60
2022-12-04T17:02:51.407Z,61.27
2022-12-04T17:05:29.065Z,61.39
2022-12-04T17:07:56.180Z,61.17
2022-12-04T17:10:24.471Z,61.07
2022-12-04T17:12:55.228Z,60.80
2022-12-04T17:15:24.611Z,60.79
2022-12-04T17:17:51.474Z,60.78
2022-12-04T17:20:21.059Z,61.23
2022-12-04T17:22:48.705Z,61.18
2022-12-04T17:25:18.948Z,60.84
2022-12-04T17:27:46.349Z,60.81
2022-12-04T17:30:13.980Z,61.25
2022-12-04T17:32:40.960Z,61.03
2022-12-04T17:35:09.612Z,60.69
2022-12-04T17:37:36.923Z,61.10
2022-12-04T17:40:03.795Z,61.01
2022-12-04T17:42:34.840Z,61.09
2022-12-04T17:45:01.442Z,60.67
2022-12-04T17:47:37.953Z,61.07
2022-12-04T17:50:06.804Z,60.83
2022-12-04T17:52:33.963Z,60.72
2022-12-04T17:55:00.699Z,60.99
2022-12-04T17:57:28.357Z,60.96
2022-12-04T17:59:54.973Z,61.56
2022-12-04T18:02:21.817Z,61.75
2022-12-04T18:04:48.518Z,61.56
2022-12-04T18:07:15.406Z,61.94
2022-12-04T18:09:42.077Z,62.14
2022-12-04T18:12:08.687Z,61.92
2022-12-04T18:14:35.481Z,62.26
2022-12-04T18:17:02.839Z,62.29
2022-12-04T18:19:30.492Z,62.87
2022-12-04T18:21:57.380Z,62.90
2022-12-04T18:24:27.373Z,63.42
2022-12-04T18:26:54.221Z,63.00
2022-12-04T18:29:24.965Z,63.43
2022-12-04T18:31:52.046Z,63.21
2022-12-04T18:34:19.805Z,62.96
2022-12-04T18:36:47.163Z,63.56
2022-12-04T18:39:20.562Z,63.38
2022-12-04T18:41:48.138Z,63.64
2022-12-04T18:44:15.513Z,63.85
2022-12-04T18:46:42.263Z,64.28
2022-12-04T18:49:09.965Z,64.63
2022-12-04T18:51:45.714Z,64.34
2022-12-04T18:54:18.981Z,64.33
2022-12-04T18:56:46.328Z,64.68
2022-12-04T18:59:16.090Z,64.70
2022-12-04T19:01:43.343Z,64.81
2022-12-04T19:04:12.115Z,65.56
2022-12-04T19:06:42.283Z,65.25
2022-12-04T19:09:12.853Z,65.41
2022-12-04T19:11:40.232Z,65.65
2022-12-04T19:14:16.095Z,65.21
2022-12-04T19:16:48.243Z,65.79
2022-12-04T19:19:15.480Z,65.69
2022-12-04T19:21:42.418Z,66.33
2022-12-04T19:24:10.633Z,66.02
2022-12-04T19:26:37.752Z,65.98
2022-12-04T19:29:05.357Z,66.02
2022-12-04T19:31:36.860Z,66.66
2022-12-04T19:34:04.151Z,66.56
2022-12-04T19:36:32.113Z,66.60
2022-12-04T19:39:00.064Z,67.09
2022-12-04T19:41:30.137Z,66.95
2022-12-04T19:43:59.476Z,67.37
2022-12-04T19:46:30.371Z,67.61
2022-12-04T19:49:02.661Z,67.89
2022-12-04T19:51:32.295Z,67.84
2022-12-04T19:54:00.172Z,67.74
2022-12-04T19:56:28.596Z,67.94
2022-12-04T19:58:58.618Z,68.32
2022-12-04T20:01:28.760Z,68.06
2022-12-04T20:03:57.269Z,68.41
2022-12-04T20:06:27.495Z,68.93
2022-12-04T20:09:06.771Z,68.85
2022-12-04T20:11:33.932Z,69.15
2022-12-04T20:14:02.119Z,69.15
2022-12-04T20:16:31.152Z,69.73
2022-12-04T20:18:59.020Z,70.04
2022-12-04T20:21:30.496Z,69.82
2022-12-04T20:23:58.814Z,70.32
2022-12-04T20:26:28.782Z,70.28
2022-12-04T20:28:58.305Z,70.73
2022-12-04T20:31:32.418Z,70.40
2022-12-04T20:34:00.426Z,70.52
2022-12-04T20:36:28.608Z,70.76
2022-12-04T20:38:58.301Z,70.64
2022-12-04T20:41:26.625Z,71.12
2022-12-04T20:43:53.351Z,70.99
2022-12-04T20:46:26.516Z,71.36
2022-12-04T20:48:53.982Z,71.18
2022-12-04T20:51:23.818Z,71.16
2022-12-04T20:53:51.833Z,71.04
2022-12-04T20:56:20.513Z,71.54
2022-12-04T20:58:47.267Z,71.63
2022-12-04T21:01:16.579Z,71.61
2022-12-04T21:03:44.056Z,71.79
2022-12-04T21:06:16.407Z,71.61
2022-12-04T21:08:57.080Z,72.04
2022-12-04T21:11:30.576Z,72.08
2022-12-04T21:14:17.769Z,72.33
2022-12-04T21:16:44.610Z,72.34
2022-12-04T21:19:13.041Z,72.11
2022-12-04T21:21:39.782Z,72.11
2022-12-04T21:24:08.966Z,72.33
2022-12-04T21:26:36.572Z,72.54
2022-12-04T21:29:05.254Z,72.48
2022-12-04T21:31:32.180Z,72.00
2022-12-04T21:34:00.221Z,72.49
2022-12-04T21:36:28.501Z,72.58
2022-12-04T21:38:56.278Z,73.23
2022-12-04T21:41:41.825Z,73.42
2022-12-04T21:44:14.224Z,73.18
2022-12-04T21:46:40.900Z,73.81
2022-12-04T21:49:08.039Z,73.48
2022-12-04T21:54:22.401Z,74.39
2022-12-04T21:56:49.042Z,73.86
2022-12-04T21:59:17.031Z,74.77
2022-12-04T22:01:43.961Z,74.69
2022-12-04T22:04:10.674Z,74.11
2022-12-04T22:06:37.975Z,74.67
2022-12-04T22:09:08.520Z,74.14
2022-12-04T22:11:35.635Z,74.85
2022-12-04T22:14:02.593Z,74.67
2022-12-04T22:16:30.894Z,74.45
2022-12-04T22:18:59.265Z,74.71
2022-12-04T22:21:27.131Z,75.22
2022-12-04T22:24:01.696Z,74.51
2022-12-04T22:26:29.668Z,74.94
2022-12-04T22:28:56.650Z,74.55
2022-12-04T22:31:26.502Z,74.88
2022-12-04T22:33:55.586Z,74.30
2022-12-04T22:36:25.372Z,74.31
2022-12-04T22:39:09.406Z,74.78
2022-12-04T22:41:37.683Z,74.68
2022-12-04T22:44:04.855Z,74.74
2022-12-04T22:46:31.710Z,75.02
2022-12-04T22:48:59.504Z,74.61
2022-12-04T22:51:27.486Z,74.49
2022-12-04T22:53:56.312Z,74.28
2022-12-04T22:56:31.515Z,74.20
2022-12-04T22:58:58.973Z,73.92
2022-12-04T23:01:28.351Z,74.21
2022-12-04T23:03:55.625Z,73.84
2022-12-04T23:06:24.927Z,73.65
2022-12-04T23:09:05.103Z,74.30
2022-12-04T23:11:31.971Z,73.72
2022-12-04T23:14:01.379Z,73.60
2022-12-04T23:16:31.032Z,73.62
2022-12-04T23:18:59.125Z,73.56
2022-12-04T23:21:26.561Z,73.50
2022-12-04T23:23:54.487Z,73.93
2022-12-04T23:26:27.026Z,73.57
2022-12-04T23:28:55.160Z,73.90
2022-12-04T23:31:22.279Z,73.32
2022-12-04T23:33:49.953Z,73.67
2022-12-04T23:36:17.186Z,73.57
2022-12-04T23:38:44.734Z,73.80
2022-12-04T23:41:17.561Z,73.99
2022-12-04T23:43:44.739Z,73.33
2022-12-04T23:46:13.531Z,73.38
2022-12-04T23:48:41.863Z,72.96
2022-12-04T23:51:10.161Z,73.48
2022-12-04T23:53:36.858Z,73.47
2022-12-04T23:56:08.746Z,73.29
2022-12-04T23:58:36.315Z,72.99
